sensor_id;sensor_type;location;lat;lon;timestamp;P1;durP1;ratioP1;P2;durP2;ratioP2
71475;SDS011;59286;59.274;17.974;2022-11-23T00:02:13;6.07;;;3.60;;
71475;SDS011;59286;59.274;17.974;2022-11-23T00:04:38;4.78;;;3.42;;
71475;SDS011;59286;59.274;17.974;2022-11-23T00:07:03;6.78;;;3.95;;
71475;SDS011;59286;59.274;17.974;2022-11-23T00:09:29;5.95;;;3.88;;
71475;SDS011;59286;59.274;17.974;2022-11-23T00:11:54;6.82;;;3.83;;
71475;SDS011;59286;59.274;17.974;2022-11-23T00:14:19;5.63;;;3.85;;
71475;SDS011;59286;59.274;17.974;2022-11-23T00:16:45;6.38;;;4.53;;
71475;SDS011;59286;59.274;17.974;2022-11-23T00:19:10;4.80;;;3.70;;
71475;SDS011;59286;59.274;17.974;2022-11-23T00:21:35;5.05;;;3.72;;
71475;SDS011;59286;59.274;17.974;2022-11-23T00:24:01;4.32;;;3.45;;
71475;SDS011;59286;59.274;17.974;2022-11-23T00:26:26;4.30;;;3.65;;
71475;SDS011;59286;59.274;17.974;2022-11-23T00:28:51;6.03;;;3.72;;
71475;SDS011;59286;59.274;17.974;2022-11-23T00:31:17;5.70;;;3.55;;
71475;SDS011;59286;59.274;17.974;2022-11-23T00:33:51;5.38;;;4.00;;
71475;SDS011;59286;59.274;17.974;2022-11-23T00:36:18;4.47;;;3.30;;
71475;SDS011;59286;59.274;17.974;2022-11-23T00:38:45;4.40;;;3.33;;
71475;SDS011;59286;59.274;17.974;2022-11-23T00:41:13;7.90;;;3.30;;
71475;SDS011;59286;59.274;17.974;2022-11-23T00:43:40;4.43;;;3.50;;
71475;SDS011;59286;59.274;17.974;2022-11-23T00:48:34;5.32;;;3.40;;
71475;SDS011;59286;59.274;17.974;2022-11-23T00:51:01;3.53;;;3.22;;
71475;SDS011;59286;59.274;17.974;2022-11-23T00:53:28;3.45;;;3.05;;
71475;SDS011;59286;59.274;17.974;2022-11-23T00:55:54;4.13;;;3.20;;
71475;SDS011;59286;59.274;17.974;2022-11-23T00:58:20;4.00;;;2.45;;
71475;SDS011;59286;59.274;17.974;2022-11-23T01:00:46;3.92;;;2.72;;
71475;SDS011;59286;59.274;17.974;2022-11-23T01:03:12;4.75;;;3.00;;
71475;SDS011;59286;59.274;17.974;2022-11-23T01:05:38;4.30;;;3.13;;
71475;SDS011;59286;59.274;17.974;2022-11-23T01:08:04;8.65;;;3.60;;
71475;SDS011;59286;59.274;17.974;2022-11-23T01:10:30;5.00;;;2.95;;
71475;SDS011;59286;59.274;17.974;2022-11-23T01:12:56;4.38;;;3.20;;
71475;SDS011;59286;59.274;17.974;2022-11-23T01:15:21;5.72;;;3.92;;
71475;SDS011;59286;59.274;17.974;2022-11-23T01:17:46;5.82;;;3.97;;
71475;SDS011;59286;59.274;17.974;2022-11-23T01:20:12;6.43;;;4.28;;
71475;SDS011;59286;59.274;17.974;2022-11-23T01:22:37;7.25;;;4.50;;
71475;SDS011;59286;59.274;17.974;2022-11-23T01:25:03;5.30;;;3.85;;
71475;SDS011;59286;59.274;17.974;2022-11-23T01:27:28;5.80;;;3.30;;
71475;SDS011;59286;59.274;17.974;2022-11-23T01:29:54;4.53;;;3.60;;
71475;SDS011;59286;59.274;17.974;2022-11-23T01:32:19;6.45;;;3.88;;
71475;SDS011;59286;59.274;17.974;2022-11-23T01:34:44;5.80;;;3.95;;
71475;SDS011;59286;59.274;17.974;2022-11-23T01:37:10;6.93;;;3.25;;
71475;SDS011;59286;59.274;17.974;2022-11-23T01:39:35;5.95;;;2.97;;
71475;SDS011;59286;59.274;17.974;2022-11-23T01:42:01;4.15;;;3.22;;
71475;SDS011;59286;59.274;17.974;2022-11-23T01:44:31;4.13;;;3.20;;
71475;SDS011;59286;59.274;17.974;2022-11-23T01:46:59;3.55;;;2.85;;
71475;SDS011;59286;59.274;17.974;2022-11-23T01:49:31;4.68;;;2.78;;
71475;SDS011;59286;59.274;17.974;2022-11-23T01:52:00;3.28;;;2.90;;
71475;SDS011;59286;59.274;17.974;2022-11-23T01:54:31;3.97;;;2.53;;
71475;SDS011;59286;59.274;17.974;2022-11-23T01:57:03;3.55;;;2.22;;
71475;SDS011;59286;59.274;17.974;2022-11-23T01:59:33;5.45;;;3.22;;
71475;SDS011;59286;59.274;17.974;2022-11-23T02:02:00;3.33;;;2.20;;
71475;SDS011;59286;59.274;17.974;2022-11-23T02:04:28;3.72;;;2.25;;
71475;SDS011;59286;59.274;17.974;2022-11-23T02:06:56;3.75;;;2.13;;
71475;SDS011;59286;59.274;17.974;2022-11-23T02:09:25;4.75;;;2.63;;
71475;SDS011;59286;59.274;17.974;2022-11-23T02:11:50;3.78;;;2.72;;
71475;SDS011;59286;59.274;17.974;2022-11-23T02:14:16;4.45;;;2.53;;
71475;SDS011;59286;59.274;17.974;2022-11-23T02:16:42;4.35;;;2.17;;
71475;SDS011;59286;59.274;17.974;2022-11-23T02:19:12;2.95;;;2.33;;
71475;SDS011;59286;59.274;17.974;2022-11-23T02:21:44;5.57;;;2.15;;
71475;SDS011;59286;59.274;17.974;2022-11-23T02:24:22;4.07;;;2.60;;
71475;SDS011;59286;59.274;17.974;2022-11-23T02:26:55;3.83;;;2.38;;
71475;SDS011;59286;59.274;17.974;2022-11-23T02:29:22;4.13;;;2.20;;
71475;SDS011;59286;59.274;17.974;2022-11-23T02:31:49;3.42;;;2.20;;
71475;SDS011;59286;59.274;17.974;2022-11-23T02:34:15;6.10;;;2.20;;
71475;SDS011;59286;59.274;17.974;2022-11-23T02:36:50;2.38;;;2.10;;
71475;SDS011;59286;59.274;17.974;2022-11-23T02:39:23;4.20;;;2.35;;
71475;SDS011;59286;59.274;17.974;2022-11-23T02:41:54;5.72;;;2.25;;
71475;SDS011;59286;59.274;17.974;2022-11-23T02:44:22;6.10;;;2.40;;
71475;SDS011;59286;59.274;17.974;2022-11-23T02:47:08;5.13;;;2.40;;
71475;SDS011;59286;59.274;17.974;2022-11-23T02:49:35;3.45;;;2.00;;
71475;SDS011;59286;59.274;17.974;2022-11-23T02:52:01;3.42;;;2.17;;
71475;SDS011;59286;59.274;17.974;2022-11-23T02:54:27;3.25;;;2.15;;
71475;SDS011;59286;59.274;17.974;2022-11-23T02:56:52;9.32;;;2.10;;
71475;SDS011;59286;59.274;17.974;2022-11-23T02:59:18;2.75;;;2.03;;
71475;SDS011;59286;59.274;17.974;2022-11-23T03:01:43;5.22;;;2.08;;
71475;SDS011;59286;59.274;17.974;2022-11-23T03:04:09;2.83;;;1.90;;
71475;SDS011;59286;59.274;17.974;2022-11-23T03:06:34;4.13;;;1.92;;
71475;SDS011;59286;59.274;17.974;2022-11-23T03:09:00;3.30;;;1.80;;
71475;SDS011;59286;59.274;17.974;2022-11-23T03:11:25;2.50;;;1.75;;
71475;SDS011;59286;59.274;17.974;2022-11-23T03:13:51;3.83;;;1.90;;
71475;SDS011;59286;59.274;17.974;2022-11-23T03:16:16;4.72;;;1.75;;
71475;SDS011;59286;59.274;17.974;2022-11-23T03:18:42;2.38;;;1.65;;
71475;SDS011;59286;59.274;17.974;2022-11-23T03:21:07;2.45;;;1.83;;
71475;SDS011;59286;59.274;17.974;2022-11-23T03:23:33;3.55;;;1.90;;
71475;SDS011;59286;59.274;17.974;2022-11-23T03:26:00;3.00;;;1.75;;
71475;SDS011;59286;59.274;17.974;2022-11-23T03:28:25;2.85;;;1.83;;
71475;SDS011;59286;59.274;17.974;2022-11-23T03:30:51;2.80;;;1.70;;
71475;SDS011;59286;59.274;17.974;2022-11-23T03:33:17;5.22;;;1.90;;
71475;SDS011;59286;59.274;17.974;2022-11-23T03:35:43;2.90;;;1.98;;
71475;SDS011;59286;59.274;17.974;2022-11-23T03:38:09;4.15;;;1.75;;
71475;SDS011;59286;59.274;17.974;2022-11-23T03:40:34;3.70;;;1.90;;
71475;SDS011;59286;59.274;17.974;2022-11-23T03:42:59;2.85;;;1.70;;
71475;SDS011;59286;59.274;17.974;2022-11-23T03:45:25;3.95;;;1.58;;
71475;SDS011;59286;59.274;17.974;2022-11-23T03:47:50;3.78;;;1.83;;
71475;SDS011;59286;59.274;17.974;2022-11-23T03:50:16;2.33;;;1.52;;
71475;SDS011;59286;59.274;17.974;2022-11-23T03:52:41;4.55;;;1.90;;
71475;SDS011;59286;59.274;17.974;2022-11-23T03:55:07;3.42;;;2.00;;
71475;SDS011;59286;59.274;17.974;2022-11-23T03:57:32;2.28;;;1.70;;
71475;SDS011;59286;59.274;17.974;2022-11-23T03:59:58;3.28;;;1.75;;
71475;SDS011;59286;59.274;17.974;2022-11-23T04:02:23;2.65;;;1.63;;
71475;SDS011;59286;59.274;17.974;2022-11-23T04:04:48;4.50;;;2.00;;
71475;SDS011;59286;59.274;17.974;2022-11-23T04:07:14;4.00;;;1.75;;
71475;SDS011;59286;59.274;17.974;2022-11-23T04:09:39;3.50;;;1.58;;
71475;SDS011;59286;59.274;17.974;2022-11-23T04:12:05;3.03;;;1.63;;
71475;SDS011;59286;59.274;17.974;2022-11-23T04:14:31;2.85;;;1.50;;
71475;SDS011;59286;59.274;17.974;2022-11-23T04:16:56;2.80;;;1.80;;
71475;SDS011;59286;59.274;17.974;2022-11-23T04:19:21;2.00;;;1.65;;
71475;SDS011;59286;59.274;17.974;2022-11-23T04:21:47;2.75;;;1.27;;
71475;SDS011;59286;59.274;17.974;2022-11-23T04:24:12;4.15;;;1.50;;
71475;SDS011;59286;59.274;17.974;2022-11-23T04:26:38;2.22;;;1.52;;
71475;SDS011;59286;59.274;17.974;2022-11-23T04:29:04;4.07;;;1.75;;
71475;SDS011;59286;59.274;17.974;2022-11-23T04:31:30;1.80;;;1.63;;
71475;SDS011;59286;59.274;17.974;2022-11-23T04:33:55;3.28;;;1.80;;
71475;SDS011;59286;59.274;17.974;2022-11-23T04:36:21;2.78;;;1.63;;
71475;SDS011;59286;59.274;17.974;2022-11-23T04:38:47;2.22;;;1.67;;
71475;SDS011;59286;59.274;17.974;2022-11-23T04:41:12;1.95;;;1.40;;
71475;SDS011;59286;59.274;17.974;2022-11-23T04:43:37;1.92;;;1.60;;
71475;SDS011;59286;59.274;17.974;2022-11-23T04:46:03;2.03;;;1.40;;
71475;SDS011;59286;59.274;17.974;2022-11-23T04:48:28;3.17;;;1.55;;
71475;SDS011;59286;59.274;17.974;2022-11-23T04:50:54;4.57;;;1.50;;
71475;SDS011;59286;59.274;17.974;2022-11-23T04:53:19;2.17;;;1.42;;
71475;SDS011;59286;59.274;17.974;2022-11-23T04:55:45;1.65;;;1.35;;
71475;SDS011;59286;59.274;17.974;2022-11-23T04:58:11;1.75;;;1.45;;
71475;SDS011;59286;59.274;17.974;2022-11-23T05:00:36;2.97;;;1.52;;
71475;SDS011;59286;59.274;17.974;2022-11-23T05:03:02;2.10;;;1.55;;
71475;SDS011;59286;59.274;17.974;2022-11-23T05:05:27;1.40;;;1.30;;
71475;SDS011;59286;59.274;17.974;2022-11-23T05:07:52;1.63;;;1.42;;
71475;SDS011;59286;59.274;17.974;2022-11-23T05:10:18;1.95;;;1.52;;
71475;SDS011;59286;59.274;17.974;2022-11-23T05:12:43;2.75;;;1.70;;
71475;SDS011;59286;59.274;17.974;2022-11-23T05:15:09;3.60;;;1.60;;
71475;SDS011;59286;59.274;17.974;2022-11-23T05:17:37;2.42;;;1.50;;
71475;SDS011;59286;59.274;17.974;2022-11-23T05:20:02;2.25;;;1.25;;
71475;SDS011;59286;59.274;17.974;2022-11-23T05:22:28;2.42;;;1.67;;
71475;SDS011;59286;59.274;17.974;2022-11-23T05:24:53;4.30;;;1.98;;
71475;SDS011;59286;59.274;17.974;2022-11-23T05:27:18;2.72;;;1.80;;
71475;SDS011;59286;59.274;17.974;2022-11-23T05:29:44;2.28;;;1.80;;
71475;SDS011;59286;59.274;17.974;2022-11-23T05:32:09;3.17;;;1.90;;
71475;SDS011;59286;59.274;17.974;2022-11-23T05:34:34;3.85;;;1.80;;
71475;SDS011;59286;59.274;17.974;2022-11-23T05:37:00;7.05;;;2.85;;
71475;SDS011;59286;59.274;17.974;2022-11-23T05:39:25;3.50;;;2.63;;
71475;SDS011;59286;59.274;17.974;2022-11-23T05:41:50;5.75;;;2.53;;
71475;SDS011;59286;59.274;17.974;2022-11-23T05:44:16;4.60;;;3.00;;
71475;SDS011;59286;59.274;17.974;2022-11-23T05:46:41;7.85;;;4.35;;
71475;SDS011;59286;59.274;17.974;2022-11-23T05:49:08;12.98;;;6.60;;
71475;SDS011;59286;59.274;17.974;2022-11-23T05:51:34;8.02;;;5.63;;
71475;SDS011;59286;59.274;17.974;2022-11-23T05:54:00;10.43;;;7.63;;
71475;SDS011;59286;59.274;17.974;2022-11-23T05:56:26;6.38;;;3.60;;
71475;SDS011;59286;59.274;17.974;2022-11-23T05:58:53;6.50;;;3.78;;
71475;SDS011;59286;59.274;17.974;2022-11-23T06:01:20;8.20;;;5.50;;
71475;SDS011;59286;59.274;17.974;2022-11-23T06:03:45;4.00;;;2.70;;
71475;SDS011;59286;59.274;17.974;2022-11-23T06:06:10;5.55;;;3.58;;
71475;SDS011;59286;59.274;17.974;2022-11-23T06:08:36;4.35;;;3.83;;
71475;SDS011;59286;59.274;17.974;2022-11-23T06:11:01;3.90;;;3.13;;
71475;SDS011;59286;59.274;17.974;2022-11-23T06:13:27;3.40;;;2.70;;
71475;SDS011;59286;59.274;17.974;2022-11-23T06:15:52;7.40;;;2.60;;
71475;SDS011;59286;59.274;17.974;2022-11-23T06:18:17;4.43;;;2.78;;
71475;SDS011;59286;59.274;17.974;2022-11-23T06:20:43;5.85;;;3.58;;
71475;SDS011;59286;59.274;17.974;2022-11-23T06:23:08;9.30;;;3.05;;
71475;SDS011;59286;59.274;17.974;2022-11-23T06:25:34;5.20;;;3.20;;
71475;SDS011;59286;59.274;17.974;2022-11-23T06:27:59;4.00;;;3.03;;
71475;SDS011;59286;59.274;17.974;2022-11-23T06:30:26;6.50;;;2.70;;
71475;SDS011;59286;59.274;17.974;2022-11-23T06:32:53;5.75;;;2.80;;
71475;SDS011;59286;59.274;17.974;2022-11-23T06:35:18;8.35;;;2.92;;
71475;SDS011;59286;59.274;17.974;2022-11-23T06:37:44;2.97;;;2.50;;
71475;SDS011;59286;59.274;17.974;2022-11-23T06:40:11;4.45;;;2.90;;
71475;SDS011;59286;59.274;17.974;2022-11-23T06:42:37;4.60;;;2.80;;
71475;SDS011;59286;59.274;17.974;2022-11-23T06:45:03;4.50;;;3.13;;
71475;SDS011;59286;59.274;17.974;2022-11-23T06:47:28;4.85;;;3.58;;
71475;SDS011;59286;59.274;17.974;2022-11-23T06:49:54;5.00;;;3.58;;
71475;SDS011;59286;59.274;17.974;2022-11-23T06:52:19;4.82;;;3.45;;
71475;SDS011;59286;59.274;17.974;2022-11-23T06:54:45;6.22;;;3.53;;
71475;SDS011;59286;59.274;17.974;2022-11-23T06:57:11;6.53;;;3.67;;
71475;SDS011;59286;59.274;17.974;2022-11-23T06:59:36;4.10;;;3.70;;
71475;SDS011;59286;59.274;17.974;2022-11-23T07:02:02;5.07;;;3.90;;
71475;SDS011;59286;59.274;17.974;2022-11-23T07:04:27;7.15;;;4.50;;
71475;SDS011;59286;59.274;17.974;2022-11-23T07:06:52;5.63;;;4.07;;
71475;SDS011;59286;59.274;17.974;2022-11-23T07:09:18;6.13;;;4.43;;
71475;SDS011;59286;59.274;17.974;2022-11-23T07:11:43;7.53;;;5.55;;
71475;SDS011;59286;59.274;17.974;2022-11-23T07:14:09;7.82;;;4.57;;
71475;SDS011;59286;59.274;17.974;2022-11-23T07:16:35;7.55;;;5.10;;
71475;SDS011;59286;59.274;17.974;2022-11-23T07:19:00;6.25;;;5.13;;
71475;SDS011;59286;59.274;17.974;2022-11-23T07:21:26;10.15;;;5.75;;
71475;SDS011;59286;59.274;17.974;2022-11-23T07:23:51;7.13;;;5.85;;
71475;SDS011;59286;59.274;17.974;2022-11-23T07:26:16;9.80;;;5.88;;
71475;SDS011;59286;59.274;17.974;2022-11-23T07:28:42;7.13;;;6.25;;
71475;SDS011;59286;59.274;17.974;2022-11-23T07:31:07;11.45;;;6.45;;
71475;SDS011;59286;59.274;17.974;2022-11-23T07:33:32;6.70;;;5.70;;
71475;SDS011;59286;59.274;17.974;2022-11-23T07:36:01;7.97;;;6.20;;
71475;SDS011;59286;59.274;17.974;2022-11-23T07:38:28;8.15;;;6.25;;
71475;SDS011;59286;59.274;17.974;2022-11-23T07:40:54;10.48;;;6.75;;
71475;SDS011;59286;59.274;17.974;2022-11-23T07:43:19;10.05;;;6.75;;
71475;SDS011;59286;59.274;17.974;2022-11-23T07:45:44;7.43;;;5.68;;
71475;SDS011;59286;59.274;17.974;2022-11-23T07:48:10;7.32;;;6.15;;
71475;SDS011;59286;59.274;17.974;2022-11-23T07:50:36;9.27;;;6.07;;
71475;SDS011;59286;59.274;17.974;2022-11-23T07:53:03;9.73;;;6.38;;
71475;SDS011;59286;59.274;17.974;2022-11-23T07:55:29;11.30;;;6.95;;
71475;SDS011;59286;59.274;17.974;2022-11-23T07:57:55;8.10;;;7.28;;
71475;SDS011;59286;59.274;17.974;2022-11-23T08:00:21;8.40;;;6.85;;
71475;SDS011;59286;59.274;17.974;2022-11-23T08:02:49;12.27;;;6.88;;
71475;SDS011;59286;59.274;17.974;2022-11-23T08:05:15;11.90;;;6.80;;
71475;SDS011;59286;59.274;17.974;2022-11-23T08:07:41;10.00;;;6.95;;
71475;SDS011;59286;59.274;17.974;2022-11-23T08:10:07;10.05;;;6.13;;
71475;SDS011;59286;59.274;17.974;2022-11-23T08:12:33;7.32;;;6.35;;
71475;SDS011;59286;59.274;17.974;2022-11-23T08:14:59;9.07;;;5.63;;
71475;SDS011;59286;59.274;17.974;2022-11-23T08:17:24;9.57;;;5.68;;
71475;SDS011;59286;59.274;17.974;2022-11-23T08:19:49;12.70;;;6.35;;
71475;SDS011;59286;59.274;17.974;2022-11-23T08:22:15;7.32;;;5.28;;
71475;SDS011;59286;59.274;17.974;2022-11-23T08:24:40;6.50;;;5.03;;
71475;SDS011;59286;59.274;17.974;2022-11-23T08:27:06;8.75;;;5.15;;
71475;SDS011;59286;59.274;17.974;2022-11-23T08:29:31;6.85;;;4.80;;
71475;SDS011;59286;59.274;17.974;2022-11-23T08:31:57;7.82;;;5.00;;
71475;SDS011;59286;59.274;17.974;2022-11-23T08:34:22;6.43;;;5.40;;
71475;SDS011;59286;59.274;17.974;2022-11-23T08:36:47;8.15;;;5.30;;
71475;SDS011;59286;59.274;17.974;2022-11-23T08:39:13;7.22;;;5.25;;
71475;SDS011;59286;59.274;17.974;2022-11-23T08:41:39;8.27;;;5.85;;
71475;SDS011;59286;59.274;17.974;2022-11-23T08:44:05;9.68;;;6.15;;
71475;SDS011;59286;59.274;17.974;2022-11-23T08:46:33;6.70;;;5.57;;
71475;SDS011;59286;59.274;17.974;2022-11-23T08:48:59;9.23;;;6.00;;
71475;SDS011;59286;59.274;17.974;2022-11-23T08:51:25;9.90;;;6.30;;
71475;SDS011;59286;59.274;17.974;2022-11-23T08:53:51;10.00;;;6.80;;
71475;SDS011;59286;59.274;17.974;2022-11-23T08:56:16;8.90;;;6.43;;
71475;SDS011;59286;59.274;17.974;2022-11-23T08:58:42;8.52;;;6.45;;
71475;SDS011;59286;59.274;17.974;2022-11-23T09:01:09;10.48;;;6.57;;
71475;SDS011;59286;59.274;17.974;2022-11-23T09:03:37;8.40;;;6.47;;
71475;SDS011;59286;59.274;17.974;2022-11-23T09:06:02;8.32;;;6.93;;
71475;SDS011;59286;59.274;17.974;2022-11-23T09:08:28;11.23;;;7.13;;
71475;SDS011;59286;59.274;17.974;2022-11-23T09:10:53;10.20;;;7.30;;
71475;SDS011;59286;59.274;17.974;2022-11-23T09:13:19;11.32;;;7.03;;
71475;SDS011;59286;59.274;17.974;2022-11-23T09:15:44;9.18;;;6.88;;
71475;SDS011;59286;59.274;17.974;2022-11-23T09:18:10;11.40;;;7.38;;
71475;SDS011;59286;59.274;17.974;2022-11-23T09:20:38;9.52;;;7.30;;
71475;SDS011;59286;59.274;17.974;2022-11-23T09:23:03;10.35;;;7.03;;
71475;SDS011;59286;59.274;17.974;2022-11-23T09:25:29;9.88;;;7.32;;
71475;SDS011;59286;59.274;17.974;2022-11-23T09:27:57;11.13;;;8.55;;
71475;SDS011;59286;59.274;17.974;2022-11-23T09:30:23;14.35;;;8.43;;
71475;SDS011;59286;59.274;17.974;2022-11-23T09:32:49;12.73;;;8.23;;
71475;SDS011;59286;59.274;17.974;2022-11-23T09:35:15;11.52;;;8.43;;
71475;SDS011;59286;59.274;17.974;2022-11-23T09:37:40;10.95;;;7.68;;
71475;SDS011;59286;59.274;17.974;2022-11-23T09:40:06;9.85;;;8.25;;
71475;SDS011;59286;59.274;17.974;2022-11-23T09:45:20;14.10;;;8.02;;
71475;SDS011;59286;59.274;17.974;2022-11-23T09:50:45;8.55;;;7.35;;
71475;SDS011;59286;59.274;17.974;2022-11-23T09:53:22;11.20;;;7.72;;
71475;SDS011;59286;59.274;17.974;2022-11-23T09:55:54;9.63;;;6.90;;
71475;SDS011;59286;59.274;17.974;2022-11-23T09:58:21;9.80;;;7.30;;
71475;SDS011;59286;59.274;17.974;2022-11-23T10:01:09;9.77;;;6.85;;
71475;SDS011;59286;59.274;17.974;2022-11-23T10:03:39;9.48;;;6.40;;
71475;SDS011;59286;59.274;17.974;2022-11-23T10:06:24;8.63;;;6.85;;
71475;SDS011;59286;59.274;17.974;2022-11-23T10:09:11;10.15;;;6.68;;
71475;SDS011;59286;59.274;17.974;2022-11-23T10:18:01;9.32;;;6.22;;
71475;SDS011;59286;59.274;17.974;2022-11-23T10:26:14;8.15;;;5.90;;
71475;SDS011;59286;59.274;17.974;2022-11-23T10:28:41;7.80;;;6.00;;
71475;SDS011;59286;59.274;17.974;2022-11-23T10:36:19;9.23;;;6.35;;
71475;SDS011;59286;59.274;17.974;2022-11-23T10:38:46;7.28;;;5.90;;
71475;SDS011;59286;59.274;17.974;2022-11-23T10:41:14;8.70;;;6.35;;
71475;SDS011;59286;59.274;17.974;2022-11-23T10:43:49;7.63;;;6.38;;
71475;SDS011;59286;59.274;17.974;2022-11-23T10:48:55;10.15;;;6.53;;
71475;SDS011;59286;59.274;17.974;2022-11-23T10:51:32;6.88;;;6.18;;
71475;SDS011;59286;59.274;17.974;2022-11-23T10:54:05;8.57;;;5.95;;
71475;SDS011;59286;59.274;17.974;2022-11-23T10:56:47;6.27;;;5.63;;
71475;SDS011;59286;59.274;17.974;2022-11-23T10:59:48;6.10;;;5.50;;
71475;SDS011;59286;59.274;17.974;2022-11-23T11:02:16;7.88;;;6.03;;
71475;SDS011;59286;59.274;17.974;2022-11-23T11:04:44;8.65;;;6.25;;
71475;SDS011;59286;59.274;17.974;2022-11-23T11:07:25;8.40;;;6.43;;
71475;SDS011;59286;59.274;17.974;2022-11-23T11:09:59;12.90;;;6.85;;
71475;SDS011;59286;59.274;17.974;2022-11-23T11:12:27;8.40;;;6.25;;
71475;SDS011;59286;59.274;17.974;2022-11-23T11:14:54;7.55;;;6.35;;
71475;SDS011;59286;59.274;17.974;2022-11-23T11:17:35;8.27;;;6.43;;
71475;SDS011;59286;59.274;17.974;2022-11-23T11:22:54;11.43;;;6.53;;
71475;SDS011;59286;59.274;17.974;2022-11-23T11:25:30;9.57;;;7.05;;
71475;SDS011;59286;59.274;17.974;2022-11-23T11:28:01;8.57;;;6.10;;
71475;SDS011;59286;59.274;17.974;2022-11-23T11:30:41;7.07;;;6.38;;
71475;SDS011;59286;59.274;17.974;2022-11-23T11:33:21;7.20;;;5.97;;
71475;SDS011;59286;59.274;17.974;2022-11-23T11:35:52;7.85;;;5.97;;
71475;SDS011;59286;59.274;17.974;2022-11-23T11:38:21;10.43;;;7.05;;
71475;SDS011;59286;59.274;17.974;2022-11-23T11:40:53;11.60;;;6.55;;
71475;SDS011;59286;59.274;17.974;2022-11-23T11:43:24;6.57;;;5.88;;
71475;SDS011;59286;59.274;17.974;2022-11-23T11:45:57;8.48;;;6.45;;
71475;SDS011;59286;59.274;17.974;2022-11-23T11:48:27;8.45;;;6.53;;
71475;SDS011;59286;59.274;17.974;2022-11-23T11:51:04;8.48;;;6.05;;
71475;SDS011;59286;59.274;17.974;2022-11-23T11:53:39;8.80;;;5.82;;
71475;SDS011;59286;59.274;17.974;2022-11-23T11:56:12;12.45;;;6.00;;
71475;SDS011;59286;59.274;17.974;2022-11-23T11:59:04;7.88;;;6.40;;
71475;SDS011;59286;59.274;17.974;2022-11-23T12:01:43;11.10;;;8.10;;
71475;SDS011;59286;59.274;17.974;2022-11-23T12:04:13;10.90;;;7.30;;
71475;SDS011;59286;59.274;17.974;2022-11-23T12:06:47;8.25;;;5.55;;
71475;SDS011;59286;59.274;17.974;2022-11-23T12:09:19;4.60;;;3.35;;
71475;SDS011;59286;59.274;17.974;2022-11-23T12:11:49;5.30;;;3.65;;
71475;SDS011;59286;59.274;17.974;2022-11-23T12:14:14;5.40;;;2.95;;
71475;SDS011;59286;59.274;17.974;2022-11-23T12:16:44;4.95;;;3.45;;
71475;SDS011;59286;59.274;17.974;2022-11-23T12:19:23;3.38;;;2.60;;
71475;SDS011;59286;59.274;17.974;2022-11-23T12:30:46;2.22;;;2.03;;
71475;SDS011;59286;59.274;17.974;2022-11-23T12:52:50;5.20;;;2.35;;
71475;SDS011;59286;59.274;17.974;2022-11-23T12:55:41;4.82;;;2.08;;
71475;SDS011;59286;59.274;17.974;2022-11-23T12:58:27;3.00;;;2.10;;
71475;SDS011;59286;59.274;17.974;2022-11-23T13:01:05;2.70;;;1.95;;
71475;SDS011;59286;59.274;17.974;2022-11-23T13:03:40;3.25;;;2.45;;
71475;SDS011;59286;59.274;17.974;2022-11-23T13:09:25;2.45;;;1.90;;
71475;SDS011;59286;59.274;17.974;2022-11-23T13:15:48;3.85;;;1.92;;
71475;SDS011;59286;59.274;17.974;2022-11-23T13:32:32;5.30;;;1.80;;
71475;SDS011;59286;59.274;17.974;2022-11-23T13:38:27;1.88;;;1.70;;
71475;SDS011;59286;59.274;17.974;2022-11-23T13:40:33;3.30;;;2.13;;
71475;SDS011;59286;59.274;17.974;2022-11-23T13:43:05;3.92;;;2.50;;
71475;SDS011;59286;59.274;17.974;2022-11-23T13:45:32;6.50;;;2.88;;
71475;SDS011;59286;59.274;17.974;2022-11-23T13:50:31;5.78;;;2.95;;
71475;SDS011;59286;59.274;17.974;2022-11-23T13:52:56;3.90;;;2.92;;
71475;SDS011;59286;59.274;17.974;2022-11-23T13:55:30;7.53;;;2.53;;
71475;SDS011;59286;59.274;17.974;2022-11-23T14:00:50;4.18;;;2.78;;
71475;SDS011;59286;59.274;17.974;2022-11-23T14:09:20;6.03;;;2.60;;
71475;SDS011;59286;59.274;17.974;2022-11-23T14:11:50;5.55;;;2.70;;
71475;SDS011;59286;59.274;17.974;2022-11-23T14:14:21;3.08;;;2.40;;
71475;SDS011;59286;59.274;17.974;2022-11-23T14:16:58;4.47;;;2.67;;
71475;SDS011;59286;59.274;17.974;2022-11-23T14:22:14;5.35;;;2.58;;
71475;SDS011;59286;59.274;17.974;2022-11-23T14:24:53;4.68;;;2.53;;
71475;SDS011;59286;59.274;17.974;2022-11-23T14:33:41;4.45;;;2.30;;
71475;SDS011;59286;59.274;17.974;2022-11-23T14:41:48;3.47;;;2.03;;
71475;SDS011;59286;59.274;17.974;2022-11-23T14:44:17;3.15;;;2.22;;
71475;SDS011;59286;59.274;17.974;2022-11-23T14:47:07;4.88;;;2.40;;
71475;SDS011;59286;59.274;17.974;2022-11-23T14:49:34;5.03;;;2.58;;
71475;SDS011;59286;59.274;17.974;2022-11-23T14:52:00;5.45;;;3.10;;
71475;SDS011;59286;59.274;17.974;2022-11-23T14:54:28;5.57;;;3.33;;
71475;SDS011;59286;59.274;17.974;2022-11-23T14:57:03;5.40;;;3.10;;
71475;SDS011;59286;59.274;17.974;2022-11-23T14:59:37;4.15;;;3.20;;
71475;SDS011;59286;59.274;17.974;2022-11-23T15:02:10;4.13;;;2.72;;
71475;SDS011;59286;59.274;17.974;2022-11-23T15:04:58;2.80;;;2.10;;
71475;SDS011;59286;59.274;17.974;2022-11-23T15:07:52;2.00;;;1.65;;
71475;SDS011;59286;59.274;17.974;2022-11-23T15:13:18;2.58;;;1.70;;
71475;SDS011;59286;59.274;17.974;2022-11-23T15:15:51;2.30;;;1.50;;
71475;SDS011;59286;59.274;17.974;2022-11-23T15:18:25;4.10;;;1.40;;
71475;SDS011;59286;59.274;17.974;2022-11-23T15:20:51;6.40;;;2.17;;
71475;SDS011;59286;59.274;17.974;2022-11-23T15:23:20;2.65;;;2.17;;
71475;SDS011;59286;59.274;17.974;2022-11-23T15:25:54;2.80;;;2.00;;
71475;SDS011;59286;59.274;17.974;2022-11-23T15:28:24;1.63;;;1.52;;
71475;SDS011;59286;59.274;17.974;2022-11-23T15:30:52;3.55;;;1.77;;
71475;SDS011;59286;59.274;17.974;2022-11-23T15:33:18;3.53;;;1.90;;
71475;SDS011;59286;59.274;17.974;2022-11-23T15:35:45;4.47;;;2.47;;
71475;SDS011;59286;59.274;17.974;2022-11-23T15:38:12;3.50;;;2.58;;
71475;SDS011;59286;59.274;17.974;2022-11-23T15:40:40;5.07;;;2.75;;
71475;SDS011;59286;59.274;17.974;2022-11-23T15:43:14;4.40;;;1.85;;
71475;SDS011;59286;59.274;17.974;2022-11-23T15:48:21;2.75;;;1.77;;
71475;SDS011;59286;59.274;17.974;2022-11-23T15:50:55;2.97;;;2.00;;
71475;SDS011;59286;59.274;17.974;2022-11-23T15:53:27;2.83;;;2.33;;
71475;SDS011;59286;59.274;17.974;2022-11-23T15:56:15;3.10;;;2.10;;
71475;SDS011;59286;59.274;17.974;2022-11-23T15:58:46;4.70;;;2.50;;
71475;SDS011;59286;59.274;17.974;2022-11-23T16:01:13;2.50;;;2.30;;
71475;SDS011;59286;59.274;17.974;2022-11-23T16:03:49;7.03;;;3.20;;
71475;SDS011;59286;59.274;17.974;2022-11-23T16:06:17;9.68;;;6.28;;
71475;SDS011;59286;59.274;17.974;2022-11-23T16:08:48;10.43;;;7.57;;
71475;SDS011;59286;59.274;17.974;2022-11-23T16:11:17;5.40;;;3.80;;
71475;SDS011;59286;59.274;17.974;2022-11-23T16:17:04;4.85;;;4.03;;
71475;SDS011;59286;59.274;17.974;2022-11-23T16:19:38;6.60;;;4.85;;
71475;SDS011;59286;59.274;17.974;2022-11-23T16:22:05;4.57;;;3.63;;
71475;SDS011;59286;59.274;17.974;2022-11-23T16:24:32;4.25;;;3.10;;
71475;SDS011;59286;59.274;17.974;2022-11-23T16:26:58;9.48;;;3.53;;
71475;SDS011;59286;59.274;17.974;2022-11-23T16:29:32;3.25;;;2.30;;
71475;SDS011;59286;59.274;17.974;2022-11-23T16:32:00;2.28;;;1.98;;
71475;SDS011;59286;59.274;17.974;2022-11-23T16:34:29;5.97;;;2.15;;
71475;SDS011;59286;59.274;17.974;2022-11-23T16:36:54;3.67;;;2.20;;
71475;SDS011;59286;59.274;17.974;2022-11-23T16:39:22;3.03;;;2.40;;